sensor_id;sensor_type;location;lat;lon;timestamp;P1;durP1;ratioP1;P2;durP2;ratioP2
57389;SDS011;43217;52.694;6.214;2024-02-26T00:01:51;14.98;;;13.48;;
57389;SDS011;43217;52.694;6.214;2024-02-26T00:04:17;15.18;;;13.57;;
57389;SDS011;43217;52.694;6.214;2024-02-26T00:06:43;16.60;;;13.52;;
57389;SDS011;43217;52.694;6.214;2024-02-26T00:09:09;15.05;;;13.55;;
57389;SDS011;43217;52.694;6.214;2024-02-26T00:11:35;16.42;;;14.02;;
57389;SDS011;43217;52.694;6.214;2024-02-26T00:14:01;16.33;;;14.35;;
57389;SDS011;43217;52.694;6.214;2024-02-26T00:16:27;16.05;;;14.40;;
57389;SDS011;43217;52.694;6.214;2024-02-26T00:18:53;14.77;;;13.38;;
57389;SDS011;43217;52.694;6.214;2024-02-26T00:21:18;15.75;;;14.02;;
57389;SDS011;43217;52.694;6.214;2024-02-26T00:23:44;16.73;;;15.02;;
57389;SDS011;43217;52.694;6.214;2024-02-26T00:26:09;16.48;;;14.65;;
57389;SDS011;43217;52.694;6.214;2024-02-26T00:28:36;15.90;;;14.13;;
57389;SDS011;43217;52.694;6.214;2024-02-26T00:31:02;16.52;;;14.55;;
57389;SDS011;43217;52.694;6.214;2024-02-26T00:33:27;17.38;;;14.98;;
57389;SDS011;43217;52.694;6.214;2024-02-26T00:35:53;16.67;;;14.85;;
57389;SDS011;43217;52.694;6.214;2024-02-26T00:38:19;16.80;;;14.25;;
57389;SDS011;43217;52.694;6.214;2024-02-26T00:40:44;17.02;;;15.23;;
57389;SDS011;43217;52.694;6.214;2024-02-26T00:43:10;16.70;;;14.93;;
57389;SDS011;43217;52.694;6.214;2024-02-26T00:45:36;16.38;;;14.60;;
57389;SDS011;43217;52.694;6.214;2024-02-26T00:48:01;17.55;;;14.90;;
57389;SDS011;43217;52.694;6.214;2024-02-26T00:50:30;16.42;;;14.73;;
57389;SDS011;43217;52.694;6.214;2024-02-26T00:52:56;16.00;;;14.18;;
57389;SDS011;43217;52.694;6.214;2024-02-26T00:55:22;18.25;;;14.48;;
57389;SDS011;43217;52.694;6.214;2024-02-26T00:57:47;17.25;;;15.43;;
57389;SDS011;43217;52.694;6.214;2024-02-26T01:00:13;18.58;;;15.90;;
57389;SDS011;43217;52.694;6.214;2024-02-26T01:02:39;16.27;;;14.52;;
57389;SDS011;43217;52.694;6.214;2024-02-26T01:05:06;20.92;;;16.10;;
57389;SDS011;43217;52.694;6.214;2024-02-26T01:07:34;17.02;;;15.27;;
57389;SDS011;43217;52.694;6.214;2024-02-26T01:10:04;16.90;;;15.10;;
57389;SDS011;43217;52.694;6.214;2024-02-26T01:12:30;17.48;;;15.20;;
57389;SDS011;43217;52.694;6.214;2024-02-26T01:14:57;16.83;;;15.07;;
57389;SDS011;43217;52.694;6.214;2024-02-26T01:17:23;16.35;;;14.63;;
57389;SDS011;43217;52.694;6.214;2024-02-26T01:19:48;17.98;;;14.75;;
57389;SDS011;43217;52.694;6.214;2024-02-26T01:22:14;16.85;;;14.63;;
57389;SDS011;43217;52.694;6.214;2024-02-26T01:24:40;16.67;;;14.15;;
57389;SDS011;43217;52.694;6.214;2024-02-26T01:27:05;15.50;;;13.90;;
57389;SDS011;43217;52.694;6.214;2024-02-26T01:29:32;18.63;;;14.80;;
57389;SDS011;43217;52.694;6.214;2024-02-26T01:31:58;17.13;;;14.18;;
57389;SDS011;43217;52.694;6.214;2024-02-26T01:34:24;16.60;;;14.80;;
57389;SDS011;43217;52.694;6.214;2024-02-26T01:36:49;15.93;;;14.20;;
57389;SDS011;43217;52.694;6.214;2024-02-26T01:39:15;15.60;;;13.60;;
57389;SDS011;43217;52.694;6.214;2024-02-26T01:41:41;16.73;;;13.95;;
57389;SDS011;43217;52.694;6.214;2024-02-26T01:44:06;17.38;;;15.05;;
57389;SDS011;43217;52.694;6.214;2024-02-26T01:46:33;17.02;;;14.57;;
57389;SDS011;43217;52.694;6.214;2024-02-26T01:49:00;16.13;;;13.77;;
57389;SDS011;43217;52.694;6.214;2024-02-26T01:51:27;17.08;;;13.70;;
57389;SDS011;43217;52.694;6.214;2024-02-26T01:53:53;17.83;;;14.23;;
57389;SDS011;43217;52.694;6.214;2024-02-26T01:56:19;18.85;;;15.27;;
57389;SDS011;43217;52.694;6.214;2024-02-26T01:58:46;17.35;;;13.75;;
57389;SDS011;43217;52.694;6.214;2024-02-26T02:01:13;17.08;;;14.35;;
57389;SDS011;43217;52.694;6.214;2024-02-26T02:03:41;18.35;;;15.27;;
57389;SDS011;43217;52.694;6.214;2024-02-26T02:06:07;17.38;;;14.68;;
57389;SDS011;43217;52.694;6.214;2024-02-26T02:08:33;17.45;;;14.43;;
57389;SDS011;43217;52.694;6.214;2024-02-26T02:11:00;19.88;;;14.57;;
57389;SDS011;43217;52.694;6.214;2024-02-26T02:13:26;19.15;;;14.82;;
57389;SDS011;43217;52.694;6.214;2024-02-26T02:15:51;19.63;;;15.80;;
57389;SDS011;43217;52.694;6.214;2024-02-26T02:18:17;18.55;;;15.80;;
57389;SDS011;43217;52.694;6.214;2024-02-26T02:20:44;18.05;;;15.05;;
57389;SDS011;43217;52.694;6.214;2024-02-26T02:23:09;18.33;;;15.27;;
57389;SDS011;43217;52.694;6.214;2024-02-26T02:25:35;18.15;;;15.43;;
57389;SDS011;43217;52.694;6.214;2024-02-26T02:28:01;19.02;;;15.02;;
57389;SDS011;43217;52.694;6.214;2024-02-26T02:30:28;20.73;;;16.52;;
57389;SDS011;43217;52.694;6.214;2024-02-26T02:32:56;20.30;;;16.73;;
57389;SDS011;43217;52.694;6.214;2024-02-26T02:35:23;19.92;;;16.40;;
57389;SDS011;43217;52.694;6.214;2024-02-26T02:37:51;19.70;;;16.42;;
57389;SDS011;43217;52.694;6.214;2024-02-26T02:40:17;19.60;;;15.82;;
57389;SDS011;43217;52.694;6.214;2024-02-26T02:42:43;22.17;;;16.75;;
57389;SDS011;43217;52.694;6.214;2024-02-26T02:45:09;21.55;;;16.83;;
57389;SDS011;43217;52.694;6.214;2024-02-26T02:47:37;23.30;;;16.77;;
57389;SDS011;43217;52.694;6.214;2024-02-26T02:50:03;20.30;;;16.35;;
57389;SDS011;43217;52.694;6.214;2024-02-26T02:52:30;20.30;;;17.35;;
57389;SDS011;43217;52.694;6.214;2024-02-26T02:54:55;21.30;;;16.73;;
57389;SDS011;43217;52.694;6.214;2024-02-26T02:57:21;21.95;;;16.60;;
57389;SDS011;43217;52.694;6.214;2024-02-26T02:59:47;21.38;;;17.13;;
57389;SDS011;43217;52.694;6.214;2024-02-26T03:02:13;22.92;;;17.70;;
57389;SDS011;43217;52.694;6.214;2024-02-26T03:04:38;22.33;;;17.35;;
57389;SDS011;43217;52.694;6.214;2024-02-26T03:07:04;25.23;;;17.70;;
57389;SDS011;43217;52.694;6.214;2024-02-26T03:09:29;25.67;;;18.92;;
57389;SDS011;43217;52.694;6.214;2024-02-26T03:11:55;27.38;;;19.88;;
57389;SDS011;43217;52.694;6.214;2024-02-26T03:14:21;28.05;;;19.23;;
57389;SDS011;43217;52.694;6.214;2024-02-26T03:16:46;28.60;;;19.60;;
57389;SDS011;43217;52.694;6.214;2024-02-26T03:19:15;25.88;;;18.70;;
57389;SDS011;43217;52.694;6.214;2024-02-26T03:21:41;31.08;;;21.60;;
57389;SDS011;43217;52.694;6.214;2024-02-26T03:24:07;28.83;;;19.95;;
57389;SDS011;43217;52.694;6.214;2024-02-26T03:26:35;29.08;;;20.50;;
57389;SDS011;43217;52.694;6.214;2024-02-26T03:29:01;30.08;;;20.50;;
57389;SDS011;43217;52.694;6.214;2024-02-26T03:31:27;31.85;;;22.05;;
57389;SDS011;43217;52.694;6.214;2024-02-26T03:33:53;32.25;;;21.33;;
57389;SDS011;43217;52.694;6.214;2024-02-26T03:36:19;31.92;;;22.85;;
57389;SDS011;43217;52.694;6.214;2024-02-26T03:38:45;31.27;;;22.17;;
57389;SDS011;43217;52.694;6.214;2024-02-26T03:41:10;32.15;;;22.35;;
57389;SDS011;43217;52.694;6.214;2024-02-26T03:43:36;32.53;;;22.88;;
57389;SDS011;43217;52.694;6.214;2024-02-26T03:46:01;33.95;;;22.38;;
57389;SDS011;43217;52.694;6.214;2024-02-26T03:48:27;30.98;;;22.50;;
57389;SDS011;43217;52.694;6.214;2024-02-26T03:50:52;33.83;;;24.27;;
57389;SDS011;43217;52.694;6.214;2024-02-26T03:53:18;35.08;;;24.27;;
57389;SDS011;43217;52.694;6.214;2024-02-26T03:55:44;37.15;;;25.15;;
57389;SDS011;43217;52.694;6.214;2024-02-26T03:58:11;37.40;;;25.75;;
57389;SDS011;43217;52.694;6.214;2024-02-26T04:00:37;36.80;;;26.65;;
57389;SDS011;43217;52.694;6.214;2024-02-26T04:03:03;37.75;;;26.70;;
57389;SDS011;43217;52.694;6.214;2024-02-26T04:05:29;40.55;;;26.77;;
57389;SDS011;43217;52.694;6.214;2024-02-26T04:07:54;42.30;;;28.25;;
57389;SDS011;43217;52.694;6.214;2024-02-26T04:10:20;38.33;;;27.10;;
57389;SDS011;43217;52.694;6.214;2024-02-26T04:12:45;40.83;;;28.35;;
57389;SDS011;43217;52.694;6.214;2024-02-26T04:15:11;39.00;;;26.85;;
57389;SDS011;43217;52.694;6.214;2024-02-26T04:17:37;40.88;;;26.45;;
57389;SDS011;43217;52.694;6.214;2024-02-26T04:20:03;41.92;;;27.42;;
57389;SDS011;43217;52.694;6.214;2024-02-26T04:22:32;42.63;;;29.90;;
57389;SDS011;43217;52.694;6.214;2024-02-26T04:24:58;42.90;;;28.67;;
57389;SDS011;43217;52.694;6.214;2024-02-26T04:27:23;46.13;;;29.58;;
57389;SDS011;43217;52.694;6.214;2024-02-26T04:29:49;44.08;;;29.13;;
57389;SDS011;43217;52.694;6.214;2024-02-26T04:32:15;44.50;;;28.80;;
57389;SDS011;43217;52.694;6.214;2024-02-26T04:34:40;45.15;;;29.02;;
57389;SDS011;43217;52.694;6.214;2024-02-26T04:37:07;43.50;;;30.00;;
57389;SDS011;43217;52.694;6.214;2024-02-26T04:39:32;45.70;;;30.13;;
57389;SDS011;43217;52.694;6.214;2024-02-26T04:41:58;43.38;;;29.73;;
57389;SDS011;43217;52.694;6.214;2024-02-26T04:44:24;45.03;;;30.10;;
57389;SDS011;43217;52.694;6.214;2024-02-26T04:46:50;46.05;;;30.92;;
57389;SDS011;43217;52.694;6.214;2024-02-26T04:49:15;43.80;;;30.38;;
57389;SDS011;43217;52.694;6.214;2024-02-26T04:51:41;42.33;;;30.02;;
57389;SDS011;43217;52.694;6.214;2024-02-26T04:54:06;43.65;;;30.77;;
57389;SDS011;43217;52.694;6.214;2024-02-26T04:56:32;44.35;;;29.15;;
57389;SDS011;43217;52.694;6.214;2024-02-26T04:58:57;39.85;;;28.23;;
57389;SDS011;43217;52.694;6.214;2024-02-26T05:01:23;42.80;;;29.95;;
57389;SDS011;43217;52.694;6.214;2024-02-26T05:03:49;40.80;;;28.98;;
57389;SDS011;43217;52.694;6.214;2024-02-26T05:06:14;37.83;;;27.67;;
57389;SDS011;43217;52.694;6.214;2024-02-26T05:08:40;36.75;;;27.02;;
57389;SDS011;43217;52.694;6.214;2024-02-26T05:11:06;37.50;;;27.48;;
57389;SDS011;43217;52.694;6.214;2024-02-26T05:13:31;37.13;;;26.92;;
57389;SDS011;43217;52.694;6.214;2024-02-26T05:15:57;39.78;;;27.00;;
57389;SDS011;43217;52.694;6.214;2024-02-26T05:18:23;37.85;;;25.27;;
57389;SDS011;43217;52.694;6.214;2024-02-26T05:20:49;36.90;;;25.83;;
57389;SDS011;43217;52.694;6.214;2024-02-26T05:23:14;36.10;;;25.85;;
57389;SDS011;43217;52.694;6.214;2024-02-26T05:25:40;36.22;;;25.42;;
57389;SDS011;43217;52.694;6.214;2024-02-26T05:28:06;37.78;;;26.25;;
57389;SDS011;43217;52.694;6.214;2024-02-26T05:30:32;33.85;;;25.15;;
57389;SDS011;43217;52.694;6.214;2024-02-26T05:32:57;33.35;;;23.88;;
57389;SDS011;43217;52.694;6.214;2024-02-26T05:35:24;31.77;;;23.20;;
57389;SDS011;43217;52.694;6.214;2024-02-26T05:37:50;28.17;;;20.70;;
57389;SDS011;43217;52.694;6.214;2024-02-26T05:40:16;29.63;;;21.35;;
57389;SDS011;43217;52.694;6.214;2024-02-26T05:42:42;26.23;;;20.90;;
57389;SDS011;43217;52.694;6.214;2024-02-26T05:45:10;27.05;;;20.90;;
57389;SDS011;43217;52.694;6.214;2024-02-26T05:47:36;23.10;;;18.92;;
57389;SDS011;43217;52.694;6.214;2024-02-26T05:50:07;23.13;;;17.50;;
57389;SDS011;43217;52.694;6.214;2024-02-26T05:52:35;20.17;;;16.70;;
57389;SDS011;43217;52.694;6.214;2024-02-26T05:55:01;19.25;;;15.30;;
57389;SDS011;43217;52.694;6.214;2024-02-26T05:57:27;19.08;;;15.40;;
57389;SDS011;43217;52.694;6.214;2024-02-26T05:59:53;17.92;;;15.07;;
57389;SDS011;43217;52.694;6.214;2024-02-26T06:02:18;18.17;;;15.07;;
57389;SDS011;43217;52.694;6.214;2024-02-26T06:04:44;20.55;;;15.43;;
57389;SDS011;43217;52.694;6.214;2024-02-26T06:07:11;18.00;;;14.48;;
57389;SDS011;43217;52.694;6.214;2024-02-26T06:09:37;21.00;;;15.00;;
57389;SDS011;43217;52.694;6.214;2024-02-26T06:12:02;18.15;;;15.43;;
57389;SDS011;43217;52.694;6.214;2024-02-26T06:14:28;17.50;;;14.15;;
57389;SDS011;43217;52.694;6.214;2024-02-26T06:16:53;17.92;;;14.60;;
57389;SDS011;43217;52.694;6.214;2024-02-26T06:19:19;15.60;;;13.90;;
57389;SDS011;43217;52.694;6.214;2024-02-26T06:21:45;16.33;;;13.80;;
57389;SDS011;43217;52.694;6.214;2024-02-26T06:24:10;17.13;;;14.00;;
57389;SDS011;43217;52.694;6.214;2024-02-26T06:26:36;14.55;;;13.02;;
57389;SDS011;43217;52.694;6.214;2024-02-26T06:29:01;15.10;;;13.38;;
57389;SDS011;43217;52.694;6.214;2024-02-26T06:31:27;17.30;;;12.90;;
57389;SDS011;43217;52.694;6.214;2024-02-26T06:33:53;16.33;;;13.07;;
57389;SDS011;43217;52.694;6.214;2024-02-26T06:36:19;16.55;;;12.75;;
57389;SDS011;43217;52.694;6.214;2024-02-26T06:38:44;14.60;;;12.52;;
57389;SDS011;43217;52.694;6.214;2024-02-26T06:41:10;15.13;;;12.55;;
57389;SDS011;43217;52.694;6.214;2024-02-26T06:43:36;15.25;;;12.68;;
57389;SDS011;43217;52.694;6.214;2024-02-26T06:46:02;14.10;;;12.30;;
57389;SDS011;43217;52.694;6.214;2024-02-26T06:48:27;16.70;;;12.38;;
57389;SDS011;43217;52.694;6.214;2024-02-26T06:50:53;14.35;;;11.68;;
57389;SDS011;43217;52.694;6.214;2024-02-26T06:53:19;12.93;;;11.50;;
57389;SDS011;43217;52.694;6.214;2024-02-26T06:55:44;15.52;;;12.10;;
57389;SDS011;43217;52.694;6.214;2024-02-26T06:58:10;13.80;;;10.88;;
57389;SDS011;43217;52.694;6.214;2024-02-26T07:00:36;12.98;;;11.00;;
57389;SDS011;43217;52.694;6.214;2024-02-26T07:03:01;15.68;;;11.55;;
57389;SDS011;43217;52.694;6.214;2024-02-26T07:05:27;11.52;;;9.95;;
57389;SDS011;43217;52.694;6.214;2024-02-26T07:07:53;11.60;;;9.32;;
57389;SDS011;43217;52.694;6.214;2024-02-26T07:10:19;13.88;;;9.65;;
57389;SDS011;43217;52.694;6.214;2024-02-26T07:12:45;11.65;;;9.85;;
57389;SDS011;43217;52.694;6.214;2024-02-26T07:15:10;11.50;;;10.02;;
57389;SDS011;43217;52.694;6.214;2024-02-26T07:17:36;10.05;;;9.05;;
57389;SDS011;43217;52.694;6.214;2024-02-26T07:20:02;10.80;;;9.32;;
57389;SDS011;43217;52.694;6.214;2024-02-26T07:22:30;10.77;;;9.32;;
57389;SDS011;43217;52.694;6.214;2024-02-26T07:24:57;12.25;;;10.07;;
57389;SDS011;43217;52.694;6.214;2024-02-26T07:27:23;10.88;;;9.77;;
57389;SDS011;43217;52.694;6.214;2024-02-26T07:29:48;8.95;;;7.72;;
57389;SDS011;43217;52.694;6.214;2024-02-26T07:32:14;9.98;;;8.10;;
57389;SDS011;43217;52.694;6.214;2024-02-26T07:34:40;11.32;;;8.65;;
57389;SDS011;43217;52.694;6.214;2024-02-26T07:37:09;9.52;;;8.13;;
57389;SDS011;43217;52.694;6.214;2024-02-26T07:39:36;9.40;;;8.40;;
57389;SDS011;43217;52.694;6.214;2024-02-26T07:42:02;9.48;;;8.50;;
57389;SDS011;43217;52.694;6.214;2024-02-26T07:44:28;10.40;;;9.30;;
57389;SDS011;43217;52.694;6.214;2024-02-26T07:46:54;9.23;;;8.30;;
57389;SDS011;43217;52.694;6.214;2024-02-26T07:49:19;10.40;;;8.80;;
57389;SDS011;43217;52.694;6.214;2024-02-26T07:51:45;10.27;;;8.68;;
57389;SDS011;43217;52.694;6.214;2024-02-26T07:54:11;10.05;;;8.93;;
57389;SDS011;43217;52.694;6.214;2024-02-26T07:56:36;9.65;;;8.65;;
57389;SDS011;43217;52.694;6.214;2024-02-26T07:59:02;9.90;;;8.85;;
57389;SDS011;43217;52.694;6.214;2024-02-26T08:01:27;9.90;;;8.98;;
57389;SDS011;43217;52.694;6.214;2024-02-26T08:03:53;8.43;;;7.65;;
57389;SDS011;43217;52.694;6.214;2024-02-26T08:06:19;9.02;;;8.13;;
57389;SDS011;43217;52.694;6.214;2024-02-26T08:08:44;8.82;;;8.02;;
57389;SDS011;43217;52.694;6.214;2024-02-26T08:11:10;9.68;;;8.77;;
57389;SDS011;43217;52.694;6.214;2024-02-26T08:13:36;8.80;;;7.90;;
57389;SDS011;43217;52.694;6.214;2024-02-26T08:16:01;7.43;;;6.72;;
57389;SDS011;43217;52.694;6.214;2024-02-26T08:18:27;7.85;;;6.93;;
57389;SDS011;43217;52.694;6.214;2024-02-26T08:20:53;7.43;;;6.72;;
57389;SDS011;43217;52.694;6.214;2024-02-26T08:23:18;7.95;;;7.10;;
57389;SDS011;43217;52.694;6.214;2024-02-26T08:25:44;8.38;;;6.63;;
57389;SDS011;43217;52.694;6.214;2024-02-26T08:28:09;7.28;;;6.68;;
57389;SDS011;43217;52.694;6.214;2024-02-26T08:30:38;6.80;;;6.20;;
57389;SDS011;43217;52.694;6.214;2024-02-26T08:33:04;7.25;;;6.55;;
57389;SDS011;43217;52.694;6.214;2024-02-26T08:35:29;7.03;;;6.43;;
57389;SDS011;43217;52.694;6.214;2024-02-26T08:37:55;7.55;;;6.85;;
57389;SDS011;43217;52.694;6.214;2024-02-26T08:40:21;7.40;;;6.70;;
57389;SDS011;43217;52.694;6.214;2024-02-26T08:42:47;6.82;;;6.10;;
57389;SDS011;43217;52.694;6.214;2024-02-26T08:45:12;7.07;;;6.38;;
57389;SDS011;43217;52.694;6.214;2024-02-26T08:47:38;8.13;;;7.43;;
57389;SDS011;43217;52.694;6.214;2024-02-26T08:50:07;6.65;;;6.05;;
57389;SDS011;43217;52.694;6.214;2024-02-26T08:52:34;6.85;;;6.25;;
57389;SDS011;43217;52.694;6.214;2024-02-26T08:55:00;5.85;;;5.35;;
57389;SDS011;43217;52.694;6.214;2024-02-26T08:57:25;7.55;;;6.85;;
57389;SDS011;43217;52.694;6.214;2024-02-26T08:59:52;7.60;;;6.90;;
57389;SDS011;43217;52.694;6.214;2024-02-26T09:02:17;7.20;;;6.60;;
57389;SDS011;43217;52.694;6.214;2024-02-26T09:04:44;7.30;;;6.57;;
57389;SDS011;43217;52.694;6.214;2024-02-26T09:07:10;7.80;;;7.07;;
57389;SDS011;43217;52.694;6.214;2024-02-26T09:09:36;7.30;;;6.60;;
57389;SDS011;43217;52.694;6.214;2024-02-26T09:12:01;7.03;;;6.43;;
57389;SDS011;43217;52.694;6.214;2024-02-26T09:14:27;7.57;;;6.88;;
57389;SDS011;43217;52.694;6.214;2024-02-26T09:16:53;8.98;;;8.18;;
57389;SDS011;43217;52.694;6.214;2024-02-26T09:19:18;7.70;;;7.00;;
57389;SDS011;43217;52.694;6.214;2024-02-26T09:21:44;7.50;;;6.70;;
57389;SDS011;43217;52.694;6.214;2024-02-26T09:24:11;7.38;;;6.75;;
57389;SDS011;43217;52.694;6.214;2024-02-26T09:26:37;7.70;;;7.00;;
57389;SDS011;43217;52.694;6.214;2024-02-26T09:29:03;7.78;;;7.07;;
57389;SDS011;43217;52.694;6.214;2024-02-26T09:31:31;7.72;;;6.93;;
57389;SDS011;43217;52.694;6.214;2024-02-26T09:33:56;7.05;;;6.45;;
57389;SDS011;43217;52.694;6.214;2024-02-26T09:36:22;8.05;;;7.25;;
57389;SDS011;43217;52.694;6.214;2024-02-26T09:38:48;8.88;;;8.02;;
57389;SDS011;43217;52.694;6.214;2024-02-26T09:41:16;7.68;;;6.97;;
57389;SDS011;43217;52.694;6.214;2024-02-26T09:43:43;7.85;;;7.18;;
57389;SDS011;43217;52.694;6.214;2024-02-26T09:46:13;8.25;;;7.28;;
57389;SDS011;43217;52.694;6.214;2024-02-26T09:48:40;8.05;;;7.35;;
57389;SDS011;43217;52.694;6.214;2024-02-26T09:51:08;8.60;;;7.80;;
57389;SDS011;43217;52.694;6.214;2024-02-26T09:53:36;8.25;;;7.53;;
57389;SDS011;43217;52.694;6.214;2024-02-26T09:56:07;8.57;;;7.30;;
57389;SDS011;43217;52.694;6.214;2024-02-26T09:58:32;8.13;;;7.32;;
57389;SDS011;43217;52.694;6.214;2024-02-26T10:00:59;8.88;;;7.82;;
57389;SDS011;43217;52.694;6.214;2024-02-26T10:03:31;9.20;;;8.30;;
57389;SDS011;43217;52.694;6.214;2024-02-26T10:06:03;8.10;;;6.82;;
57389;SDS011;43217;52.694;6.214;2024-02-26T10:08:30;9.93;;;9.00;;
57389;SDS011;43217;52.694;6.214;2024-02-26T10:10:57;9.27;;;8.35;;
57389;SDS011;43217;52.694;6.214;2024-02-26T10:13:23;9.95;;;8.95;;
57389;SDS011;43217;52.694;6.214;2024-02-26T10:15:48;7.78;;;7.07;;
57389;SDS011;43217;52.694;6.214;2024-02-26T10:18:14;8.07;;;7.32;;
57389;SDS011;43217;52.694;6.214;2024-02-26T10:20:40;8.65;;;7.85;;
57389;SDS011;43217;52.694;6.214;2024-02-26T10:23:05;7.40;;;6.80;;
57389;SDS011;43217;52.694;6.214;2024-02-26T10:25:31;7.60;;;6.90;;
57389;SDS011;43217;52.694;6.214;2024-02-26T10:28:00;7.55;;;6.85;;
57389;SDS011;43217;52.694;6.214;2024-02-26T10:30:29;7.63;;;6.93;;
57389;SDS011;43217;52.694;6.214;2024-02-26T10:32:55;7.63;;;6.93;;
57389;SDS011;43217;52.694;6.214;2024-02-26T10:35:22;7.68;;;6.97;;
57389;SDS011;43217;52.694;6.214;2024-02-26T10:37:48;7.45;;;6.72;;
57389;SDS011;43217;52.694;6.214;2024-02-26T10:40:15;8.50;;;7.70;;
57389;SDS011;43217;52.694;6.214;2024-02-26T10:42:42;7.90;;;7.20;;
57389;SDS011;43217;52.694;6.214;2024-02-26T10:45:08;7.28;;;6.68;;
57389;SDS011;43217;52.694;6.214;2024-02-26T10:47:38;7.13;;;6.43;;
57389;SDS011;43217;52.694;6.214;2024-02-26T10:50:06;7.07;;;6.47;;
57389;SDS011;43217;52.694;6.214;2024-02-26T10:52:32;7.88;;;7.18;;
57389;SDS011;43217;52.694;6.214;2024-02-26T10:55:00;8.60;;;7.70;;
57389;SDS011;43217;52.694;6.214;2024-02-26T10:57:37;7.53;;;6.82;;
57389;SDS011;43217;52.694;6.214;2024-02-26T11:00:05;7.35;;;6.68;;
57389;SDS011;43217;52.694;6.214;2024-02-26T11:02:33;7.28;;;6.65;;
57389;SDS011;43217;52.694;6.214;2024-02-26T11:05:02;7.80;;;7.10;;
57389;SDS011;43217;52.694;6.214;2024-02-26T11:07:29;7.30;;;6.63;;
57389;SDS011;43217;52.694;6.214;2024-02-26T11:09:56;7.20;;;6.60;;
57389;SDS011;43217;52.694;6.214;2024-02-26T11:12:24;7.20;;;6.50;;
57389;SDS011;43217;52.694;6.214;2024-02-26T11:14:53;7.70;;;6.95;;
57389;SDS011;43217;52.694;6.214;2024-02-26T11:17:21;7.43;;;6.68;;
57389;SDS011;43217;52.694;6.214;2024-02-26T11:19:48;7.63;;;6.80;;
57389;SDS011;43217;52.694;6.214;2024-02-26T11:22:16;7.45;;;6.75;;
57389;SDS011;43217;52.694;6.214;2024-02-26T11:24:42;7.70;;;7.00;;
57389;SDS011;43217;52.694;6.214;2024-02-26T11:27:09;7.40;;;6.70;;
57389;SDS011;43217;52.694;6.214;2024-02-26T11:29:43;7.07;;;6.35;;
57389;SDS011;43217;52.694;6.214;2024-02-26T11:32:12;7.10;;;6.40;;
57389;SDS011;43217;52.694;6.214;2024-02-26T11:34:39;6.90;;;6.30;;
57389;SDS011;43217;52.694;6.214;2024-02-26T11:37:09;6.50;;;5.82;;
57389;SDS011;43217;52.694;6.214;2024-02-26T11:39:36;6.47;;;5.95;;
57389;SDS011;43217;52.694;6.214;2024-02-26T11:42:10;7.05;;;6.35;;
57389;SDS011;43217;52.694;6.214;2024-02-26T11:44:39;6.35;;;5.75;;
57389;SDS011;43217;52.694;6.214;2024-02-26T11:47:40;6.60;;;6.00;;
57389;SDS011;43217;52.694;6.214;2024-02-26T11:49:59;6.53;;;6.03;;
57389;SDS011;43217;52.694;6.214;2024-02-26T11:53:31;6.72;;;6.15;;
57389;SDS011;43217;52.694;6.214;2024-02-26T11:58:44;5.97;;;5.47;;
57389;SDS011;43217;52.694;6.214;2024-02-26T12:04:04;6.05;;;5.55;;
57389;SDS011;43217;52.694;6.214;2024-02-26T12:06:31;6.05;;;5.55;;
57389;SDS011;43217;52.694;6.214;2024-02-26T12:09:05;6.63;;;5.93;;
57389;SDS011;43217;52.694;6.214;2024-02-26T12:11:30;6.15;;;5.43;;
57389;SDS011;43217;52.694;6.214;2024-02-26T12:13:56;5.97;;;5.40;;
57389;SDS011;43217;52.694;6.214;2024-02-26T12:16:37;5.80;;;5.30;;
57389;SDS011;43217;52.694;6.214;2024-02-26T12:19:05;6.88;;;6.28;;
57389;SDS011;43217;52.694;6.214;2024-02-26T12:21:35;6.00;;;5.40;;
57389;SDS011;43217;52.694;6.214;2024-02-26T12:24:14;7.47;;;5.68;;
57389;SDS011;43217;52.694;6.214;2024-02-26T12:26:41;6.05;;;5.43;;
57389;SDS011;43217;52.694;6.214;2024-02-26T12:29:07;7.03;;;6.20;;
57389;SDS011;43217;52.694;6.214;2024-02-26T12:31:33;5.82;;;5.25;;
57389;SDS011;43217;52.694;6.214;2024-02-26T12:34:02;6.25;;;5.43;;
57389;SDS011;43217;52.694;6.214;2024-02-26T12:36:28;5.57;;;5.07;;
57389;SDS011;43217;52.694;6.214;2024-02-26T12:38:54;11.80;;;10.60;;
57389;SDS011;43217;52.694;6.214;2024-02-26T12:41:20;7.43;;;5.22;;
57389;SDS011;43217;52.694;6.214;2024-02-26T12:43:47;6.30;;;5.70;;
57389;SDS011;43217;52.694;6.214;2024-02-26T12:46:13;5.60;;;5.07;;
57389;SDS011;43217;52.694;6.214;2024-02-26T12:48:42;6.70;;;5.60;;
57389;SDS011;43217;52.694;6.214;2024-02-26T12:51:09;5.68;;;5.07;;
57389;SDS011;43217;52.694;6.214;2024-02-26T12:53:37;6.45;;;5.82;;
57389;SDS011;43217;52.694;6.214;2024-02-26T12:56:05;8.07;;;7.28;;
57389;SDS011;43217;52.694;6.214;2024-02-26T12:58:33;10.68;;;9.55;;
57389;SDS011;43217;52.694;6.214;2024-02-26T13:01:00;5.70;;;5.05;;
57389;SDS011;43217;52.694;6.214;2024-02-26T13:03:26;6.57;;;5.97;;
57389;SDS011;43217;52.694;6.214;2024-02-26T13:05:52;8.30;;;7.40;;
57389;SDS011;43217;52.694;6.214;2024-02-26T13:08:19;5.82;;;4.38;;
57389;SDS011;43217;52.694;6.214;2024-02-26T13:10:46;6.82;;;6.13;;
57389;SDS011;43217;52.694;6.214;2024-02-26T13:13:14;4.97;;;4.30;;
57389;SDS011;43217;52.694;6.214;2024-02-26T13:15:41;4.63;;;4.22;;
57389;SDS011;43217;52.694;6.214;2024-02-26T13:18:10;4.85;;;4.35;;
57389;SDS011;43217;52.694;6.214;2024-02-26T13:20:36;5.05;;;4.13;;
57389;SDS011;43217;52.694;6.214;2024-02-26T13:23:03;4.65;;;4.25;;
57389;SDS011;43217;52.694;6.214;2024-02-26T13:25:30;4.35;;;3.97;;
57389;SDS011;43217;52.694;6.214;2024-02-26T13:28:09;4.25;;;3.85;;
57389;SDS011;43217;52.694;6.214;2024-02-26T13:30:38;4.65;;;3.85;;
57389;SDS011;43217;52.694;6.214;2024-02-26T13:33:12;4.80;;;4.40;;
57389;SDS011;43217;52.694;6.214;2024-02-26T13:35:38;5.15;;;4.65;;
57389;SDS011;43217;52.694;6.214;2024-02-26T13:38:05;5.18;;;4.78;;
57389;SDS011;43217;52.694;6.214;2024-02-26T13:40:31;4.82;;;4.38;;
57389;SDS011;43217;52.694;6.214;2024-02-26T13:42:57;5.20;;;4.32;;
57389;SDS011;43217;52.694;6.214;2024-02-26T13:45:23;5.25;;;4.75;;
57389;SDS011;43217;52.694;6.214;2024-02-26T13:47:48;5.03;;;4.53;;
57389;SDS011;43217;52.694;6.214;2024-02-26T13:50:14;5.80;;;5.30;;
57389;SDS011;43217;52.694;6.214;2024-02-26T13:52:40;5.70;;;5.18;;
57389;SDS011;43217;52.694;6.214;2024-02-26T13:55:07;6.10;;;5.50;;
57389;SDS011;43217;52.694;6.214;2024-02-26T13:57:32;6.05;;;5.47;;
57389;SDS011;43217;52.694;6.214;2024-02-26T13:59:58;6.30;;;5.70;;
57389;SDS011;43217;52.694;6.214;2024-02-26T14:02:24;6.00;;;5.40;;
57389;SDS011;43217;52.694;6.214;2024-02-26T14:04:49;6.38;;;5.70;;
57389;SDS011;43217;52.694;6.214;2024-02-26T14:07:15;5.85;;;5.35;;
57389;SDS011;43217;52.694;6.214;2024-02-26T14:09:42;6.80;;;6.13;;
57389;SDS011;43217;52.694;6.214;2024-02-26T14:12:08;6.60;;;6.00;;
57389;SDS011;43217;52.694;6.214;2024-02-26T14:14:34;7.43;;;6.72;;
57389;SDS011;43217;52.694;6.214;2024-02-26T14:17:03;6.45;;;5.78;;
57389;SDS011;43217;52.694;6.214;2024-02-26T14:19:29;6.53;;;5.95;;
57389;SDS011;43217;52.694;6.214;2024-02-26T14:21:54;8.32;;;6.68;;
57389;SDS011;43217;52.694;6.214;2024-02-26T14:24:20;8.50;;;7.22;;
57389;SDS011;43217;52.694;6.214;2024-02-26T14:26:45;8.63;;;7.25;;
57389;SDS011;43217;52.694;6.214;2024-02-26T14:29:11;8.57;;;7.72;;
57389;SDS011;43217;52.694;6.214;2024-02-26T14:31:37;7.57;;;6.88;;
57389;SDS011;43217;52.694;6.214;2024-02-26T14:34:02;7.95;;;7.25;;
57389;SDS011;43217;52.694;6.214;2024-02-26T14:36:28;7.75;;;6.97;;